EmailTwitter


Observations de surface / Québec / CYUL (71627)

Régions: Québec | Canada | États-Unis | Europe | France | UK | Ailleurs
Station
Affichage
Infos & localisation pour CYUL (71627) | Aide pour décoder les METARs

Observations prises le 2020-01-29 à 18H00 UTC à MONTREAL INTL A, QB (CYUL)

Etat du ciel: quelques nuages.

Température: -8.0 Celsius

Point de rosée: -17.0 Celsius

Humidité relative: 48%

Facteur vent: -12.

Vents: Nord à 7 km/h ou 4 noeuds.

Pression au niveau moyen de la mer: 102.37 kilopascals.

Calage altimétrique: 102.34 kilopascals ou 30.22 pouces de mercure.

Visibilité horizontale: 30.00 milles terrestres ou 48.00 kilomètres.

Observation METAR:

CYUL 291800Z 01004KT 310V060 30SM FEW035 M08/M17 A3022 RMK CU1 CU TR SLP237=